sensor_id;sensor_type;location;lat;lon;timestamp;pressure;altitude;pressure_sealevel;temperature;humidity
75521;BME280;64102;48.628;9.002;2023-06-22T00:00:56;96155.66;;;17.70;100.00
75521;BME280;64102;48.628;9.002;2023-06-22T00:03:23;96150.88;;;17.59;100.00
75521;BME280;64102;48.628;9.002;2023-06-22T00:05:52;96155.00;;;17.68;100.00
75521;BME280;64102;48.628;9.002;2023-06-22T00:08:18;96149.44;;;17.71;100.00
75521;BME280;64102;48.628;9.002;2023-06-22T00:10:44;96161.69;;;17.71;100.00
75521;BME280;64102;48.628;9.002;2023-06-22T00:13:11;96159.25;;;17.69;100.00
75521;BME280;64102;48.628;9.002;2023-06-22T00:15:38;96167.00;;;17.63;100.00
75521;BME280;64102;48.628;9.002;2023-06-22T00:18:05;96159.41;;;17.53;100.00
75521;BME280;64102;48.628;9.002;2023-06-22T00:20:31;96169.31;;;17.58;100.00
75521;BME280;64102;48.628;9.002;2023-06-22T00:22:58;96165.50;;;17.45;100.00
75521;BME280;64102;48.628;9.002;2023-06-22T00:25:24;96159.56;;;17.37;100.00
75521;BME280;64102;48.628;9.002;2023-06-22T00:27:49;96150.22;;;17.42;100.00
75521;BME280;64102;48.628;9.002;2023-06-22T00:30:18;96149.84;;;17.45;100.00
75521;BME280;64102;48.628;9.002;2023-06-22T00:32:44;96151.84;;;17.43;100.00
75521;BME280;64102;48.628;9.002;2023-06-22T00:35:10;96143.66;;;17.46;100.00
75521;BME280;64102;48.628;9.002;2023-06-22T00:37:39;96152.00;;;17.42;100.00
75521;BME280;64102;48.628;9.002;2023-06-22T00:40:08;96164.31;;;17.33;100.00
75521;BME280;64102;48.628;9.002;2023-06-22T00:42:36;96162.97;;;17.37;100.00
75521;BME280;64102;48.628;9.002;2023-06-22T00:45:01;96163.63;;;17.39;100.00
75521;BME280;64102;48.628;9.002;2023-06-22T00:47:27;96164.25;;;17.27;100.00
75521;BME280;64102;48.628;9.002;2023-06-22T00:49:53;96165.84;;;17.28;100.00
75521;BME280;64102;48.628;9.002;2023-06-22T00:52:22;96174.22;;;17.38;100.00
75521;BME280;64102;48.628;9.002;2023-06-22T00:54:52;96178.19;;;17.34;100.00
75521;BME280;64102;48.628;9.002;2023-06-22T00:57:18;96185.09;;;17.27;100.00
75521;BME280;64102;48.628;9.002;2023-06-22T00:59:45;96199.41;;;17.31;100.00
75521;BME280;64102;48.628;9.002;2023-06-22T01:02:12;96210.31;;;17.34;100.00
75521;BME280;64102;48.628;9.002;2023-06-22T01:04:39;96200.69;;;17.35;100.00
75521;BME280;64102;48.628;9.002;2023-06-22T01:07:12;96184.19;;;17.20;100.00
75521;BME280;64102;48.628;9.002;2023-06-22T01:10:04;96198.19;;;17.19;100.00
75521;BME280;64102;48.628;9.002;2023-06-22T01:12:34;96204.59;;;17.16;100.00
75521;BME280;64102;48.628;9.002;2023-06-22T01:15:13;96164.63;;;17.01;100.00
75521;BME280;64102;48.628;9.002;2023-06-22T01:17:40;96157.69;;;16.71;100.00
75521;BME280;64102;48.628;9.002;2023-06-22T01:20:08;96180.00;;;16.73;100.00
75521;BME280;64102;48.628;9.002;2023-06-22T01:25:47;96162.28;;;16.91;100.00
75521;BME280;64102;48.628;9.002;2023-06-22T01:28:50;96146.19;;;17.02;100.00
75521;BME280;64102;48.628;9.002;2023-06-22T01:31:21;96158.63;;;17.00;100.00
75521;BME280;64102;48.628;9.002;2023-06-22T01:33:55;96164.53;;;16.94;100.00
75521;BME280;64102;48.628;9.002;2023-06-22T01:36:21;96160.47;;;16.92;100.00
75521;BME280;64102;48.628;9.002;2023-06-22T01:38:48;96148.53;;;16.97;100.00
75521;BME280;64102;48.628;9.002;2023-06-22T01:41:15;96144.78;;;17.00;100.00
75521;BME280;64102;48.628;9.002;2023-06-22T01:43:42;96151.78;;;17.14;100.00
75521;BME280;64102;48.628;9.002;2023-06-22T01:46:09;96163.59;;;17.25;100.00
75521;BME280;64102;48.628;9.002;2023-06-22T01:48:35;96164.28;;;17.19;100.00
75521;BME280;64102;48.628;9.002;2023-06-22T01:51:02;96155.84;;;17.17;100.00
75521;BME280;64102;48.628;9.002;2023-06-22T01:53:27;96157.19;;;17.13;100.00
75521;BME280;64102;48.628;9.002;2023-06-22T01:55:52;96157.97;;;16.98;100.00
75521;BME280;64102;48.628;9.002;2023-06-22T01:58:20;96169.50;;;17.04;100.00
75521;BME280;64102;48.628;9.002;2023-06-22T02:00:55;96172.97;;;16.96;100.00
75521;BME280;64102;48.628;9.002;2023-06-22T02:03:23;96167.59;;;16.98;100.00
75521;BME280;64102;48.628;9.002;2023-06-22T02:06:06;96157.72;;;17.08;100.00
75521;BME280;64102;48.628;9.002;2023-06-22T02:08:48;96177.41;;;17.11;100.00
75521;BME280;64102;48.628;9.002;2023-06-22T02:11:15;96187.16;;;17.17;100.00
75521;BME280;64102;48.628;9.002;2023-06-22T02:13:42;96175.16;;;17.08;100.00
75521;BME280;64102;48.628;9.002;2023-06-22T02:16:11;96155.28;;;17.07;100.00
75521;BME280;64102;48.628;9.002;2023-06-22T02:18:38;96151.41;;;17.02;100.00
75521;BME280;64102;48.628;9.002;2023-06-22T02:21:05;96166.06;;;17.04;100.00
75521;BME280;64102;48.628;9.002;2023-06-22T02:23:30;96171.75;;;17.07;100.00
75521;BME280;64102;48.628;9.002;2023-06-22T02:25:58;96165.72;;;17.07;100.00
75521;BME280;64102;48.628;9.002;2023-06-22T02:28:23;96148.44;;;16.91;100.00
75521;BME280;64102;48.628;9.002;2023-06-22T02:30:48;96131.97;;;16.90;100.00
75521;BME280;64102;48.628;9.002;2023-06-22T02:33:14;96133.84;;;16.96;100.00
75521;BME280;64102;48.628;9.002;2023-06-22T02:35:39;96140.91;;;16.96;100.00
75521;BME280;64102;48.628;9.002;2023-06-22T02:38:04;96145.22;;;17.04;100.00
75521;BME280;64102;48.628;9.002;2023-06-22T02:40:30;96156.91;;;17.08;100.00
75521;BME280;64102;48.628;9.002;2023-06-22T02:42:57;96151.41;;;17.02;100.00
75521;BME280;64102;48.628;9.002;2023-06-22T02:45:26;96138.91;;;16.98;100.00
75521;BME280;64102;48.628;9.002;2023-06-22T02:47:52;96128.59;;;17.05;100.00
75521;BME280;64102;48.628;9.002;2023-06-22T02:50:17;96127.50;;;16.99;100.00
75521;BME280;64102;48.628;9.002;2023-06-22T02:52:43;96137.47;;;16.95;100.00
75521;BME280;64102;48.628;9.002;2023-06-22T02:55:08;96127.75;;;16.89;100.00
75521;BME280;64102;48.628;9.002;2023-06-22T02:57:34;96135.56;;;16.89;100.00
75521;BME280;64102;48.628;9.002;2023-06-22T02:59:59;96126.34;;;16.79;100.00
75521;BME280;64102;48.628;9.002;2023-06-22T03:02:25;96129.91;;;16.63;100.00
75521;BME280;64102;48.628;9.002;2023-06-22T03:04:51;96130.44;;;16.59;100.00
75521;BME280;64102;48.628;9.002;2023-06-22T03:07:19;96130.38;;;16.67;100.00
75521;BME280;64102;48.628;9.002;2023-06-22T03:09:44;96132.63;;;16.70;100.00
75521;BME280;64102;48.628;9.002;2023-06-22T03:12:09;96134.47;;;16.61;100.00
75521;BME280;64102;48.628;9.002;2023-06-22T03:14:35;96133.53;;;16.54;100.00
75521;BME280;64102;48.628;9.002;2023-06-22T03:17:00;96134.94;;;16.42;100.00
75521;BME280;64102;48.628;9.002;2023-06-22T03:19:29;96130.47;;;16.28;100.00
75521;BME280;64102;48.628;9.002;2023-06-22T03:21:57;96122.91;;;16.10;100.00
75521;BME280;64102;48.628;9.002;2023-06-22T03:24:22;96120.38;;;16.02;100.00
75521;BME280;64102;48.628;9.002;2023-06-22T03:26:48;96121.84;;;15.96;100.00
75521;BME280;64102;48.628;9.002;2023-06-22T03:29:13;96122.53;;;15.90;100.00
75521;BME280;64102;48.628;9.002;2023-06-22T03:31:39;96120.72;;;15.91;100.00
75521;BME280;64102;48.628;9.002;2023-06-22T03:34:04;96121.81;;;16.04;100.00
75521;BME280;64102;48.628;9.002;2023-06-22T03:36:30;96116.13;;;16.01;100.00
75521;BME280;64102;48.628;9.002;2023-06-22T03:38:55;96105.78;;;15.93;100.00
75521;BME280;64102;48.628;9.002;2023-06-22T03:41:20;96107.88;;;15.89;100.00
75521;BME280;64102;48.628;9.002;2023-06-22T03:43:46;96112.63;;;15.86;100.00
75521;BME280;64102;48.628;9.002;2023-06-22T03:46:11;96110.78;;;15.94;100.00
75521;BME280;64102;48.628;9.002;2023-06-22T03:48:37;96109.13;;;16.01;100.00
75521;BME280;64102;48.628;9.002;2023-06-22T03:51:03;96109.31;;;16.00;100.00
75521;BME280;64102;48.628;9.002;2023-06-22T03:53:29;96114.50;;;16.00;100.00
75521;BME280;64102;48.628;9.002;2023-06-22T03:55:55;96111.91;;;16.00;100.00
75521;BME280;64102;48.628;9.002;2023-06-22T03:58:21;96105.88;;;15.99;100.00
75521;BME280;64102;48.628;9.002;2023-06-22T04:00:47;96108.31;;;16.01;100.00
75521;BME280;64102;48.628;9.002;2023-06-22T04:03:14;96109.75;;;16.03;100.00
75521;BME280;64102;48.628;9.002;2023-06-22T04:05:39;96109.09;;;16.09;100.00
75521;BME280;64102;48.628;9.002;2023-06-22T04:08:05;96106.56;;;16.24;100.00
75521;BME280;64102;48.628;9.002;2023-06-22T04:10:31;96109.94;;;16.33;100.00
75521;BME280;64102;48.628;9.002;2023-06-22T04:12:56;96103.03;;;16.40;100.00
75521;BME280;64102;48.628;9.002;2023-06-22T04:15:22;96095.34;;;16.46;100.00
75521;BME280;64102;48.628;9.002;2023-06-22T04:17:47;96098.50;;;16.56;100.00
75521;BME280;64102;48.628;9.002;2023-06-22T04:20:12;96098.56;;;16.71;100.00
75521;BME280;64102;48.628;9.002;2023-06-22T04:22:38;96108.53;;;16.90;100.00
75521;BME280;64102;48.628;9.002;2023-06-22T04:25:05;96094.88;;;17.03;100.00
75521;BME280;64102;48.628;9.002;2023-06-22T04:27:32;96089.13;;;17.08;100.00
75521;BME280;64102;48.628;9.002;2023-06-22T04:29:58;96091.91;;;17.21;100.00
75521;BME280;64102;48.628;9.002;2023-06-22T04:32:25;96077.34;;;17.41;100.00
75521;BME280;64102;48.628;9.002;2023-06-22T04:34:50;96085.34;;;17.54;100.00
75521;BME280;64102;48.628;9.002;2023-06-22T04:37:17;96078.78;;;17.73;100.00
75521;BME280;64102;48.628;9.002;2023-06-22T04:39:43;96077.34;;;17.85;100.00
75521;BME280;64102;48.628;9.002;2023-06-22T04:42:08;96085.38;;;18.05;100.00
75521;BME280;64102;48.628;9.002;2023-06-22T04:44:34;96090.28;;;18.14;100.00
75521;BME280;64102;48.628;9.002;2023-06-22T04:47:01;96081.78;;;18.27;100.00
75521;BME280;64102;48.628;9.002;2023-06-22T04:49:29;96078.69;;;18.38;100.00
75521;BME280;64102;48.628;9.002;2023-06-22T04:52:02;96070.34;;;18.49;100.00
75521;BME280;64102;48.628;9.002;2023-06-22T04:54:32;96072.34;;;18.68;100.00
75521;BME280;64102;48.628;9.002;2023-06-22T04:57:04;96074.34;;;18.94;100.00
75521;BME280;64102;48.628;9.002;2023-06-22T04:59:31;96073.94;;;19.25;100.00
75521;BME280;64102;48.628;9.002;2023-06-22T05:01:57;96077.13;;;19.48;100.00
75521;BME280;64102;48.628;9.002;2023-06-22T05:04:25;96077.84;;;19.70;100.00
75521;BME280;64102;48.628;9.002;2023-06-22T05:06:54;96066.59;;;19.83;100.00
75521;BME280;64102;48.628;9.002;2023-06-22T05:09:20;96050.34;;;20.07;100.00
75521;BME280;64102;48.628;9.002;2023-06-22T05:11:46;96051.41;;;20.26;99.42
75521;BME280;64102;48.628;9.002;2023-06-22T05:14:11;96061.91;;;20.32;99.12
75521;BME280;64102;48.628;9.002;2023-06-22T05:16:37;96053.69;;;20.48;99.06
75521;BME280;64102;48.628;9.002;2023-06-22T05:19:03;96046.84;;;20.61;97.00
75521;BME280;64102;48.628;9.002;2023-06-22T05:21:30;96047.22;;;20.77;93.97
75521;BME280;64102;48.628;9.002;2023-06-22T05:23:57;96039.56;;;20.82;93.83
75521;BME280;64102;48.628;9.002;2023-06-22T05:26:26;96037.94;;;20.88;94.67
75521;BME280;64102;48.628;9.002;2023-06-22T05:28:51;96052.06;;;20.61;95.40
75521;BME280;64102;48.628;9.002;2023-06-22T05:31:17;96040.97;;;20.72;91.75
75521;BME280;64102;48.628;9.002;2023-06-22T05:33:45;96046.03;;;20.80;92.05
75521;BME280;64102;48.628;9.002;2023-06-22T05:36:10;96043.97;;;20.95;89.51
75521;BME280;64102;48.628;9.002;2023-06-22T05:38:36;96049.81;;;21.04;89.90
75521;BME280;64102;48.628;9.002;2023-06-22T05:41:02;96046.81;;;21.20;90.66
75521;BME280;64102;48.628;9.002;2023-06-22T05:43:27;96052.66;;;21.22;89.32
75521;BME280;64102;48.628;9.002;2023-06-22T05:45:53;96054.97;;;21.63;87.04
75521;BME280;64102;48.628;9.002;2023-06-22T05:48:18;96056.16;;;21.67;86.78
75521;BME280;64102;48.628;9.002;2023-06-22T05:50:43;96057.72;;;21.81;85.43
75521;BME280;64102;48.628;9.002;2023-06-22T05:53:09;96055.25;;;21.93;86.04
75521;BME280;64102;48.628;9.002;2023-06-22T05:55:34;96050.22;;;21.84;83.95
75521;BME280;64102;48.628;9.002;2023-06-22T05:57:59;96042.03;;;22.06;84.22
75521;BME280;64102;48.628;9.002;2023-06-22T06:00:25;96042.09;;;21.99;84.25
75521;BME280;64102;48.628;9.002;2023-06-22T06:02:50;96041.50;;;22.28;83.23
75521;BME280;64102;48.628;9.002;2023-06-22T06:05:16;96042.44;;;22.72;79.96
75521;BME280;64102;48.628;9.002;2023-06-22T06:07:45;96046.63;;;23.41;75.12
75521;BME280;64102;48.628;9.002;2023-06-22T06:10:11;96041.16;;;23.97;72.47
75521;BME280;64102;48.628;9.002;2023-06-22T06:12:36;96040.06;;;24.46;71.59
75521;BME280;64102;48.628;9.002;2023-06-22T06:15:02;96041.84;;;24.75;67.71
75521;BME280;64102;48.628;9.002;2023-06-22T06:17:28;96036.25;;;25.07;67.79
75521;BME280;64102;48.628;9.002;2023-06-22T06:19:53;96043.91;;;25.55;64.64
75521;BME280;64102;48.628;9.002;2023-06-22T06:22:18;96037.22;;;26.04;64.85
75521;BME280;64102;48.628;9.002;2023-06-22T06:24:45;96042.53;;;26.32;61.82
75521;BME280;64102;48.628;9.002;2023-06-22T06:27:11;96036.44;;;26.32;60.18
75521;BME280;64102;48.628;9.002;2023-06-22T06:29:36;96035.81;;;26.13;62.06
75521;BME280;64102;48.628;9.002;2023-06-22T06:32:02;96039.34;;;26.47;60.40
75521;BME280;64102;48.628;9.002;2023-06-22T06:34:27;96041.13;;;26.58;59.23
75521;BME280;64102;48.628;9.002;2023-06-22T06:36:52;96048.19;;;27.19;58.23
75521;BME280;64102;48.628;9.002;2023-06-22T06:39:18;96046.94;;;27.43;55.89
75521;BME280;64102;48.628;9.002;2023-06-22T06:41:43;96053.56;;;28.28;54.40
75521;BME280;64102;48.628;9.002;2023-06-22T06:44:08;96055.34;;;28.49;53.08
75521;BME280;64102;48.628;9.002;2023-06-22T06:46:34;96046.91;;;28.57;53.15
75521;BME280;64102;48.628;9.002;2023-06-22T06:48:59;96043.97;;;29.17;51.45
75521;BME280;64102;48.628;9.002;2023-06-22T06:51:24;96036.81;;;28.81;51.24
75521;BME280;64102;48.628;9.002;2023-06-22T06:53:50;96037.66;;;28.86;50.15
75521;BME280;64102;48.628;9.002;2023-06-22T06:56:16;96036.19;;;29.48;48.76
75521;BME280;64102;48.628;9.002;2023-06-22T06:58:41;96037.63;;;29.28;50.05
75521;BME280;64102;48.628;9.002;2023-06-22T07:01:11;96039.94;;;30.19;46.96
75521;BME280;64102;48.628;9.002;2023-06-22T07:03:37;96033.03;;;30.23;46.14
75521;BME280;64102;48.628;9.002;2023-06-22T07:06:02;96039.50;;;30.62;46.34
75521;BME280;64102;48.628;9.002;2023-06-22T07:08:28;96033.31;;;30.21;46.32
75521;BME280;64102;48.628;9.002;2023-06-22T07:10:53;96032.81;;;30.40;44.56
75521;BME280;64102;48.628;9.002;2023-06-22T07:13:19;96028.97;;;29.95;45.38
75521;BME280;64102;48.628;9.002;2023-06-22T07:15:44;96029.91;;;28.53;47.69
75521;BME280;64102;48.628;9.002;2023-06-22T07:18:10;96021.56;;;27.91;51.39
75521;BME280;64102;48.628;9.002;2023-06-22T07:20:35;96019.94;;;27.46;50.95
75521;BME280;64102;48.628;9.002;2023-06-22T07:23:00;96007.88;;;27.77;50.58
75521;BME280;64102;48.628;9.002;2023-06-22T07:25:26;96005.38;;;28.14;50.17
75521;BME280;64102;48.628;9.002;2023-06-22T07:28:03;96009.88;;;29.04;49.53
75521;BME280;64102;48.628;9.002;2023-06-22T07:30:30;95990.50;;;28.72;50.38
75521;BME280;64102;48.628;9.002;2023-06-22T07:32:57;95996.16;;;29.79;48.34
75521;BME280;64102;48.628;9.002;2023-06-22T07:35:23;95979.78;;;30.08;46.92
75521;BME280;64102;48.628;9.002;2023-06-22T07:37:48;95982.06;;;28.80;48.67
75521;BME280;64102;48.628;9.002;2023-06-22T07:40:14;95986.38;;;28.86;50.26
75521;BME280;64102;48.628;9.002;2023-06-22T07:42:39;95981.13;;;28.96;48.54
75521;BME280;64102;48.628;9.002;2023-06-22T07:45:06;95983.09;;;28.42;49.31
75521;BME280;64102;48.628;9.002;2023-06-22T07:47:33;95989.56;;;28.24;50.33
75521;BME280;64102;48.628;9.002;2023-06-22T07:50:01;95988.72;;;29.19;47.88
75521;BME280;64102;48.628;9.002;2023-06-22T07:52:30;95989.25;;;28.47;49.41
75521;BME280;64102;48.628;9.002;2023-06-22T07:54:55;96000.75;;;29.32;47.50
75521;BME280;64102;48.628;9.002;2023-06-22T07:57:21;96001.91;;;30.39;44.08
75521;BME280;64102;48.628;9.002;2023-06-22T07:59:46;96010.38;;;31.47;42.66
75521;BME280;64102;48.628;9.002;2023-06-22T08:02:12;96022.41;;;32.04;41.38
75521;BME280;64102;48.628;9.002;2023-06-22T08:04:38;96029.53;;;31.69;40.34
75521;BME280;64102;48.628;9.002;2023-06-22T08:07:03;96034.97;;;30.83;44.71
75521;BME280;64102;48.628;9.002;2023-06-22T08:09:30;96044.72;;;32.33;42.36
75521;BME280;64102;48.628;9.002;2023-06-22T08:11:56;96043.84;;;31.88;41.53
75521;BME280;64102;48.628;9.002;2023-06-22T08:14:22;96057.88;;;31.30;41.89
75521;BME280;64102;48.628;9.002;2023-06-22T08:16:48;96056.06;;;31.15;42.29
75521;BME280;64102;48.628;9.002;2023-06-22T08:19:13;96054.84;;;31.82;41.74
75521;BME280;64102;48.628;9.002;2023-06-22T08:21:39;96060.25;;;30.45;44.40
75521;BME280;64102;48.628;9.002;2023-06-22T08:24:04;96062.53;;;30.01;45.78
75521;BME280;64102;48.628;9.002;2023-06-22T08:26:30;96055.13;;;30.18;45.42
75521;BME280;64102;48.628;9.002;2023-06-22T08:28:55;96059.34;;;29.52;45.35
75521;BME280;64102;48.628;9.002;2023-06-22T08:31:20;96053.03;;;29.63;45.72
75521;BME280;64102;48.628;9.002;2023-06-22T08:33:46;96047.88;;;29.42;46.98
75521;BME280;64102;48.628;9.002;2023-06-22T08:36:11;96034.75;;;28.93;46.53
75521;BME280;64102;48.628;9.002;2023-06-22T08:38:38;96031.31;;;29.29;45.96
75521;BME280;64102;48.628;9.002;2023-06-22T08:41:04;96027.97;;;28.70;47.44
75521;BME280;64102;48.628;9.002;2023-06-22T08:43:29;96035.31;;;28.95;47.71
75521;BME280;64102;48.628;9.002;2023-06-22T08:45:54;96048.91;;;29.35;47.54
75521;BME280;64102;48.628;9.002;2023-06-22T08:48:20;96047.16;;;29.14;48.16
75521;BME280;64102;48.628;9.002;2023-06-22T08:50:45;96041.25;;;28.70;49.17
75521;BME280;64102;48.628;9.002;2023-06-22T08:53:11;96029.44;;;28.29;49.83
75521;BME280;64102;48.628;9.002;2023-06-22T08:55:36;96034.03;;;29.40;48.25
75521;BME280;64102;48.628;9.002;2023-06-22T08:58:03;96052.38;;;29.93;45.50
75521;BME280;64102;48.628;9.002;2023-06-22T09:00:29;96063.66;;;30.36;45.83
75521;BME280;64102;48.628;9.002;2023-06-22T09:02:58;96060.78;;;31.38;42.68
75521;BME280;64102;48.628;9.002;2023-06-22T09:05:24;96040.53;;;32.17;41.30
75521;BME280;64102;48.628;9.002;2023-06-22T09:07:51;96042.25;;;33.14;38.60
75521;BME280;64102;48.628;9.002;2023-06-22T09:10:16;96044.09;;;32.85;38.92
75521;BME280;64102;48.628;9.002;2023-06-22T09:12:42;96046.47;;;32.86;38.26
75521;BME280;64102;48.628;9.002;2023-06-22T09:15:08;96049.97;;;33.21;38.15
75521;BME280;64102;48.628;9.002;2023-06-22T09:17:34;96033.91;;;33.45;36.75
75521;BME280;64102;48.628;9.002;2023-06-22T09:20:00;96027.94;;;34.75;34.35
75521;BME280;64102;48.628;9.002;2023-06-22T09:22:28;96025.53;;;35.25;34.89
75521;BME280;64102;48.628;9.002;2023-06-22T09:24:55;96016.66;;;34.92;34.26
75521;BME280;64102;48.628;9.002;2023-06-22T09:27:21;96011.50;;;35.28;33.74
75521;BME280;64102;48.628;9.002;2023-06-22T09:29:47;96012.13;;;35.93;32.61
75521;BME280;64102;48.628;9.002;2023-06-22T09:32:12;95996.84;;;34.23;33.98
75521;BME280;64102;48.628;9.002;2023-06-22T09:34:38;95999.34;;;34.33;34.99
75521;BME280;64102;48.628;9.002;2023-06-22T09:37:04;95994.00;;;33.48;36.58
75521;BME280;64102;48.628;9.002;2023-06-22T09:39:29;95975.13;;;33.11;36.39
75521;BME280;64102;48.628;9.002;2023-06-22T09:41:54;95975.81;;;32.98;37.89
75521;BME280;64102;48.628;9.002;2023-06-22T09:44:20;95973.34;;;33.78;36.14
75521;BME280;64102;48.628;9.002;2023-06-22T09:46:45;95972.34;;;34.81;34.09
75521;BME280;64102;48.628;9.002;2023-06-22T09:49:11;95963.97;;;35.83;31.55
75521;BME280;64102;48.628;9.002;2023-06-22T09:51:36;95958.19;;;36.48;32.38
75521;BME280;64102;48.628;9.002;2023-06-22T09:54:01;95957.03;;;35.41;33.87
75521;BME280;64102;48.628;9.002;2023-06-22T09:56:27;95962.91;;;34.83;35.40
75521;BME280;64102;48.628;9.002;2023-06-22T09:58:53;95956.72;;;32.80;38.68
75521;BME280;64102;48.628;9.002;2023-06-22T10:01:18;95962.47;;;31.06;43.03
75521;BME280;64102;48.628;9.002;2023-06-22T10:03:46;95966.25;;;30.65;43.30
75521;BME280;64102;48.628;9.002;2023-06-22T10:06:11;95952.38;;;30.83;43.62
75521;BME280;64102;48.628;9.002;2023-06-22T10:08:36;95952.06;;;31.10;42.71
75521;BME280;64102;48.628;9.002;2023-06-22T10:11:03;95945.38;;;31.87;43.30
75521;BME280;64102;48.628;9.002;2023-06-22T10:13:29;95946.34;;;33.50;37.28
75521;BME280;64102;48.628;9.002;2023-06-22T10:15:54;95941.44;;;34.00;36.64
75521;BME280;64102;48.628;9.002;2023-06-22T10:18:20;95945.69;;;34.01;36.02
75521;BME280;64102;48.628;9.002;2023-06-22T10:20:48;95934.91;;;33.87;36.64
75521;BME280;64102;48.628;9.002;2023-06-22T10:23:13;95933.63;;;32.61;39.92
75521;BME280;64102;48.628;9.002;2023-06-22T10:25:39;95942.50;;;34.36;37.16
75521;BME280;64102;48.628;9.002;2023-06-22T10:28:04;95925.50;;;36.76;33.62
75521;BME280;64102;48.628;9.002;2023-06-22T10:30:29;95938.75;;;34.37;35.69
75521;BME280;64102;48.628;9.002;2023-06-22T10:32:55;95929.59;;;34.38;36.57
75521;BME280;64102;48.628;9.002;2023-06-22T10:35:20;95936.22;;;34.59;35.78
75521;BME280;64102;48.628;9.002;2023-06-22T10:37:46;95924.88;;;34.49;36.17
75521;BME280;64102;48.628;9.002;2023-06-22T10:40:13;95926.59;;;34.26;36.91
75521;BME280;64102;48.628;9.002;2023-06-22T10:42:39;95928.38;;;32.79;38.02
75521;BME280;64102;48.628;9.002;2023-06-22T10:45:05;95928.59;;;33.12;37.61
75521;BME280;64102;48.628;9.002;2023-06-22T10:47:30;95925.50;;;32.76;39.10
75521;BME280;64102;48.628;9.002;2023-06-22T10:49:56;95927.41;;;32.70;40.34
75521;BME280;64102;48.628;9.002;2023-06-22T10:52:21;95919.94;;;32.33;41.05
75521;BME280;64102;48.628;9.002;2023-06-22T10:54:46;95925.69;;;32.17;40.82
75521;BME280;64102;48.628;9.002;2023-06-22T10:57:12;95927.91;;;32.10;42.27
75521;BME280;64102;48.628;9.002;2023-06-22T10:59:37;95921.78;;;31.60;41.95
75521;BME280;64102;48.628;9.002;2023-06-22T11:02:02;95924.19;;;32.01;41.89
75521;BME280;64102;48.628;9.002;2023-06-22T11:04:28;95925.16;;;32.15;43.05
75521;BME280;64102;48.628;9.002;2023-06-22T11:06:53;95925.50;;;31.49;43.12
75521;BME280;64102;48.628;9.002;2023-06-22T11:09:18;95936.63;;;30.77;46.11
75521;BME280;64102;48.628;9.002;2023-06-22T11:11:46;95924.03;;;31.23;44.18
75521;BME280;64102;48.628;9.002;2023-06-22T11:14:12;95918.78;;;30.67;46.35
75521;BME280;64102;48.628;9.002;2023-06-22T11:16:37;95909.06;;;31.32;44.21
75521;BME280;64102;48.628;9.002;2023-06-22T11:19:04;95929.41;;;30.97;44.16
75521;BME280;64102;48.628;9.002;2023-06-22T11:21:30;95919.81;;;31.06;44.53
75521;BME280;64102;48.628;9.002;2023-06-22T11:23:56;95919.75;;;31.22;42.90
75521;BME280;64102;48.628;9.002;2023-06-22T11:26:21;95921.13;;;31.78;41.80
75521;BME280;64102;48.628;9.002;2023-06-22T11:28:47;95906.81;;;32.95;41.31
75521;BME280;64102;48.628;9.002;2023-06-22T11:31:12;95909.84;;;32.30;40.89
75521;BME280;64102;48.628;9.002;2023-06-22T11:33:38;95912.13;;;32.42;41.88
75521;BME280;64102;48.628;9.002;2023-06-22T11:36:03;95911.34;;;33.23;38.66
75521;BME280;64102;48.628;9.002;2023-06-22T11:38:29;95906.47;;;33.30;39.96
75521;BME280;64102;48.628;9.002;2023-06-22T11:40:57;95899.31;;;32.44;41.14
75521;BME280;64102;48.628;9.002;2023-06-22T11:43:22;95907.78;;;31.19;44.43
75521;BME280;64102;48.628;9.002;2023-06-22T11:45:48;95922.25;;;30.78;45.91
75521;BME280;64102;48.628;9.002;2023-06-22T11:48:13;95926.94;;;31.21;45.45
75521;BME280;64102;48.628;9.002;2023-06-22T11:50:38;95938.00;;;30.54;47.38
75521;BME280;64102;48.628;9.002;2023-06-22T11:53:04;95947.53;;;29.94;48.62
75521;BME280;64102;48.628;9.002;2023-06-22T11:55:29;95946.66;;;29.73;50.13
75521;BME280;64102;48.628;9.002;2023-06-22T11:57:56;95933.69;;;29.97;49.79
75521;BME280;64102;48.628;9.002;2023-06-22T12:00:24;95938.06;;;29.51;50.81
75521;BME280;64102;48.628;9.002;2023-06-22T12:02:50;95942.59;;;29.46;51.26
75521;BME280;64102;48.628;9.002;2023-06-22T12:05:20;95922.38;;;29.50;50.20
75521;BME280;64102;48.628;9.002;2023-06-22T12:07:49;95912.56;;;29.50;51.10
75521;BME280;64102;48.628;9.002;2023-06-22T12:10:15;95896.16;;;30.09;50.13
75521;BME280;64102;48.628;9.002;2023-06-22T12:12:40;95903.56;;;29.76;51.23
75521;BME280;64102;48.628;9.002;2023-06-22T12:15:06;95917.72;;;29.20;51.76
75521;BME280;64102;48.628;9.002;2023-06-22T12:17:33;95940.94;;;28.87;53.56
75521;BME280;64102;48.628;9.002;2023-06-22T12:19:58;95958.13;;;28.75;54.27
75521;BME280;64102;48.628;9.002;2023-06-22T12:22:24;95961.09;;;28.78;53.47
75521;BME280;64102;48.628;9.002;2023-06-22T12:24:49;95949.06;;;28.71;52.69
75521;BME280;64102;48.628;9.002;2023-06-22T12:27:16;95939.06;;;28.83;51.27
75521;BME280;64102;48.628;9.002;2023-06-22T12:29:49;95937.66;;;29.22;51.00
75521;BME280;64102;48.628;9.002;2023-06-22T12:32:14;95948.19;;;29.54;50.47
75521;BME280;64102;48.628;9.002;2023-06-22T12:34:41;95950.66;;;29.14;51.78
75521;BME280;64102;48.628;9.002;2023-06-22T12:37:07;95952.28;;;29.25;51.36
75521;BME280;64102;48.628;9.002;2023-06-22T12:39:32;95959.16;;;29.16;52.17
75521;BME280;64102;48.628;9.002;2023-06-22T12:41:58;95968.31;;;28.56;53.41
75521;BME280;64102;48.628;9.002;2023-06-22T12:44:23;95976.53;;;28.55;53.45
75521;BME280;64102;48.628;9.002;2023-06-22T12:46:49;95983.38;;;28.77;53.94
75521;BME280;64102;48.628;9.002;2023-06-22T12:49:14;95981.25;;;28.79;53.95
75521;BME280;64102;48.628;9.002;2023-06-22T12:51:40;95979.97;;;28.82;53.36
75521;BME280;64102;48.628;9.002;2023-06-22T12:54:07;95972.06;;;28.92;53.94